Moderate Warning for Thunderstorm
until 3:00 PM EEST
| Temperature (°F) | Max | Average | Min |
|---|---|---|---|
| Max Temperature | 54 | 40.58 | 27 |
| Avg Temperature | 50 | 37.01 | 22.27 |
| Min Temperature | 50 | 33.13 | 19 |
| Precipitation (in) | Max | Average | Min | Sum |
|---|---|---|---|---|
| Precipitation | 0 | 0 | 0 | 0 |
| Dew Point (°F) | Max | Average | Min |
|---|---|---|---|
| Dew Point | 43.02 | 33.72 | 19.11 |
| Wind (mph) | Max | Average | Min |
|---|---|---|---|
| Wind | 25 | 15.97 | 7 |
| Gust Wind | 38 | 29.91 | 26 |
| Sea Level Pressure (in) | Max | Average | Min |
|---|---|---|---|
| Sea Level Pressure | 30.32 | 29.54 | 28.76 |
| Date | Temp High/Low | Dew Pt High/Low | Humidity | Wind | Max Wind | Wind Gust | Pressure | Precip. | Condition |
|---|---|---|---|---|---|---|---|---|---|
| 11/1/2021 | 54 °F / 39 °F | 45 °F / 36 °F | 80 % | 14 mph | - | 29.67 in | 0 in | ||
| 11/2/2021 | 48 °F / 37 °F | 39 °F / 36 °F | 84 % | 16 mph | - | 29.62 in | 0 in | ||
| 11/3/2021 | 46 °F / 43 °F | 46 °F / 37 °F | 90 % | 13 mph | - | 29.46 in | 0 in | ||
| 11/4/2021 | 46 °F / 45 °F | 45 °F / 39 °F | 87 % | 15 mph | - | 29.58 in | 0 in | ||
| 11/5/2021 | 48 °F / 43 °F | 46 °F / 39 °F | 91 % | 24 mph | - | 29.34 in | 0 in | ||
| 11/6/2021 | 45 °F / 37 °F | 41 °F / 34 °F | 90 % | 18 mph | - | 29.4 in | 0 in | ||
| 11/7/2021 | 46 °F / 36 °F | 45 °F / 34 °F | 92 % | 14 mph | - | 29.31 in | 0 in | ||
| 11/8/2021 | 45 °F / 32 °F | 45 °F / 27 °F | 89 % | 20 mph | - | 29.4 in | 0 in | ||
| 11/9/2021 | 36 °F / 23 °F | 28 °F / 21 °F | 84 % | 17 mph | - | 30.06 in | 0 in | ||
| 11/10/2021 | 46 °F / 34 °F | 43 °F / 27 °F | 88 % | 22 mph | - | 29.83 in | 0 in | ||
| 11/11/2021 | 46 °F / 43 °F | 45 °F / 41 °F | 89 % | 17 mph | - | 29.67 in | 0 in | ||
| 11/12/2021 | 45 °F / 39 °F | 43 °F / 36 °F | 80 % | 22 mph | - | 29.58 in | 0 in | ||
| 11/13/2021 | 41 °F / 37 °F | 36 °F / 32 °F | 79 % | 9 mph | - | 29.99 in | 0 in | ||
| 11/14/2021 | 41 °F / 28 °F | 34 °F / 27 °F | 86 % | 7 mph | - | 30.15 in | 0 in | ||
| 11/15/2021 | 30 °F / 23 °F | 28 °F / 21 °F | 92 % | 13 mph | - | 30.33 in | 0 in | ||
| 11/16/2021 | 36 °F / 27 °F | 34 °F / 23 °F | 94 % | 14 mph | - | 30.08 in | 0 in | ||
| 11/17/2021 | 37 °F / 36 °F | 37 °F / 34 °F | 95 % | 12 mph | - | 29.79 in | 0 in | ||
| 11/18/2021 | 43 °F / 36 °F | 39 °F / 34 °F | 91 % | 20 mph | - | 29.42 in | 0 in | ||
| 11/19/2021 | 46 °F / 37 °F | 45 °F / 36 °F | 93 % | 24 mph | - | 29.21 in | 0 in | ||
| 11/20/2021 | 46 °F / 36 °F | 43 °F / 32 °F | 82 % | 25 mph | - | 29.12 in | 0 in | ||
| 11/21/2021 | 39 °F / 28 °F | 36 °F / 23 °F | 91 % | 12 mph | - | 29.21 in | 0 in | ||
| 11/22/2021 | 30 °F / 25 °F | 25 °F / 18 °F | 78 % | 12 mph | - | 29.68 in | 0 in | ||
| 11/23/2021 | 32 °F / 28 °F | 30 °F / 25 °F | 91 % | 12 mph | - | 29.62 in | 0 in | ||
| 11/24/2021 | 43 °F / 30 °F | 37 °F / 28 °F | 89 % | 22 mph | - | 29.48 in | 0 in | ||
| 11/25/2021 | 43 °F / 37 °F | 41 °F / 36 °F | 90 % | 20 mph | - | 29.32 in | 0 in | ||
| 11/26/2021 | 39 °F / 30 °F | 36 °F / 28 °F | 91 % | 18 mph | - | 29.12 in | 0 in | ||
| 11/27/2021 | 32 °F / 27 °F | 30 °F / 23 °F | 94 % | 13 mph | - | 29.26 in | 0 in | ||
| 11/28/2021 | 28 °F / 25 °F | 27 °F / 23 °F | 93 % | 9 mph | - | 29.3 in | 0 in | ||
| 11/29/2021 | 27 °F / 23 °F | 25 °F / 21 °F | 92 % | 14 mph | - | 29.22 in | 0 in | ||
| 11/30/2021 | 27 °F / 19 °F | 25 °F / 14 °F | 88 % | 18 mph | - | 28.77 in | 0 in |